Terminal Aerodrome Forecast
Issued by NWS

Home | Current Version | Previous Version | Text Only | Print | Product List | Glossary On
Versions: 1 2 3 4 5 6 7 8 9 10 11 12
325
FTUS46 KSEW 080542
TAFPAE
TAF
KPAE 080542Z 0806/0906 05006KT P6SM SCT200
     FM081800 04008KT P6SM FEW130 OVC200
     FM082300 07009KT P6SM SCT050 OVC130
     FM090400 11011KT P6SM FEW020 BKN050 OVC100 PROB30 0904/0906
      -SN=

USA.gov is the U.S. government's official web portal to all federal, state and local government web resources and services.